createdAt,value
2019-02-19T00:02:12.766Z,101017.94
2019-02-19T00:04:43.879Z,101017.36
2019-02-19T00:07:15.090Z,101021.70
2019-02-19T00:09:46.316Z,101017.79
2019-02-19T00:12:17.998Z,101020.02
2019-02-19T00:14:49.250Z,101028.28
2019-02-19T00:17:20.400Z,101024.36
2019-02-19T00:19:51.651Z,101009.00
2019-02-19T00:22:22.924Z,101008.41
2019-02-19T00:24:54.131Z,101013.44
2019-02-19T00:27:25.458Z,101022.79
2019-02-19T00:29:56.715Z,101021.67
2019-02-19T00:32:27.913Z,101010.00
2019-02-19T00:34:59.067Z,101003.30
2019-02-19T00:37:30.320Z,101002.28
2019-02-19T00:40:01.497Z,100999.84
2019-02-19T00:42:33.791Z,100998.77
2019-02-19T00:45:05.965Z,101001.58
2019-02-19T00:47:37.227Z,101000.88
2019-02-19T00:50:09.271Z,101003.30
2019-02-19T00:52:40.473Z,101004.70
2019-02-19T00:55:11.923Z,101001.42
2019-02-19T00:57:43.178Z,101005.15
2019-02-19T01:00:14.706Z,100996.48
2019-02-19T01:02:45.899Z,100987.41
2019-02-19T01:05:17.084Z,100985.02
2019-02-19T01:07:49.032Z,100989.42
2019-02-19T01:10:20.391Z,100985.11
2019-02-19T01:12:51.556Z,100982.67
2019-02-19T01:15:25.433Z,100978.84
2019-02-19T01:17:55.729Z,100985.61
2019-02-19T01:20:28.088Z,100983.57
2019-02-19T01:22:59.347Z,100980.16
2019-02-19T01:25:30.600Z,100983.88
2019-02-19T01:28:01.809Z,100976.13
2019-02-19T01:30:32.992Z,100976.22
2019-02-19T01:33:04.350Z,100975.81
2019-02-19T01:35:35.560Z,100975.00
2019-02-19T01:38:06.832Z,100969.67
2019-02-19T01:40:38.182Z,100968.87
2019-02-19T01:43:09.402Z,100961.81
2019-02-19T01:45:40.585Z,100956.09
2019-02-19T01:48:11.776Z,100959.20
2019-02-19T01:50:42.986Z,100954.97
2019-02-19T01:53:14.382Z,100954.97
2019-02-19T01:55:45.567Z,100947.11
2019-02-19T01:58:17.723Z,100952.05
2019-02-19T02:00:49.090Z,100949.42
2019-02-19T02:03:20.403Z,100941.48
2019-02-19T02:05:51.575Z,100948.42
2019-02-19T02:08:22.899Z,100940.39
2019-02-19T02:10:54.041Z,100945.53
2019-02-19T02:13:25.364Z,100942.78
2019-02-19T02:15:56.669Z,100939.98
2019-02-19T02:18:27.864Z,100942.42
2019-02-19T02:20:59.022Z,100946.95
2019-02-19T02:23:30.185Z,100948.08
2019-02-19T02:26:01.499Z,100946.16
2019-02-19T02:28:32.761Z,100944.75
2019-02-19T02:31:04.195Z,100945.54
2019-02-19T02:33:35.477Z,100939.91
2019-02-19T02:36:06.659Z,100940.30
2019-02-19T02:38:37.968Z,100942.53
2019-02-19T02:41:09.157Z,100939.09
2019-02-19T02:43:40.445Z,100942.13
2019-02-19T02:46:11.630Z,100951.78
2019-02-19T02:48:44.110Z,100945.14
2019-02-19T02:51:15.294Z,100938.69
2019-02-19T02:53:46.538Z,100938.60
2019-02-19T02:56:17.725Z,100933.76
2019-02-19T02:58:48.945Z,100936.38
2019-02-19T03:01:20.193Z,100941.61
2019-02-19T03:03:52.683Z,100930.66
2019-02-19T03:06:42.799Z,100936.67
2019-02-19T03:09:14.229Z,100931.45
2019-02-19T03:11:45.395Z,100939.30
2019-02-19T03:14:16.651Z,100938.81
2019-02-19T03:16:47.853Z,100941.91
2019-02-19T03:19:19.064Z,100939.09
2019-02-19T03:21:50.334Z,100942.84
2019-02-19T03:24:21.558Z,100935.56
2019-02-19T03:26:52.733Z,100938.37
2019-02-19T03:29:23.927Z,100934.75
2019-02-19T03:31:55.116Z,100936.45
2019-02-19T03:34:26.297Z,100939.05
2019-02-19T03:36:57.444Z,100938.13
2019-02-19T03:39:28.619Z,100938.10
2019-02-19T03:41:59.821Z,100947.14
2019-02-19T03:44:31.016Z,100939.89
2019-02-19T03:47:02.341Z,100944.73
2019-02-19T03:49:34.689Z,100943.60
2019-02-19T03:52:05.848Z,100944.70
2019-02-19T03:54:37.369Z,100943.60
2019-02-19T03:57:08.725Z,100938.14
2019-02-19T03:59:40.053Z,100935.70
2019-02-19T04:02:11.247Z,100935.79
2019-02-19T04:04:42.475Z,100945.05
2019-02-19T04:07:13.776Z,100938.11
2019-02-19T04:09:45.166Z,100943.44
2019-02-19T04:12:16.422Z,100936.40
2019-02-19T04:14:47.647Z,100937.19
2019-02-19T04:17:18.940Z,100942.95
2019-02-19T04:19:50.478Z,100942.03
2019-02-19T04:22:21.738Z,100939.94
2019-02-19T04:24:52.904Z,100937.31
2019-02-19T04:27:24.120Z,100941.95
2019-02-19T04:29:55.343Z,100946.19
2019-02-19T04:32:26.536Z,100947.53
2019-02-19T04:34:57.808Z,100946.22
2019-02-19T04:37:29.990Z,100942.33
2019-02-19T04:40:01.399Z,100929.45
2019-02-19T04:42:32.583Z,100930.55
2019-02-19T04:45:03.873Z,100933.38
2019-02-19T04:47:35.085Z,100930.58
2019-02-19T04:50:06.918Z,100925.16
2019-02-19T04:52:38.110Z,100931.92
2019-02-19T04:55:09.303Z,100939.66
2019-02-19T04:57:40.507Z,100940.88
2019-02-19T05:00:12.600Z,100934.93
2019-02-19T05:02:43.840Z,100937.85
2019-02-19T05:05:15.043Z,100938.58
2019-02-19T05:07:46.241Z,100935.27
2019-02-19T05:10:17.430Z,100935.47
2019-02-19T05:12:48.608Z,100933.67
2019-02-19T05:15:19.988Z,100937.91
2019-02-19T05:17:51.221Z,100941.22
2019-02-19T05:20:22.425Z,100944.44
2019-02-19T05:22:53.598Z,100953.02
2019-02-19T05:25:24.839Z,100949.66
2019-02-19T05:27:56.098Z,100952.38
2019-02-19T05:30:27.436Z,100953.28
2019-02-19T05:32:58.708Z,100952.56
2019-02-19T05:35:29.944Z,100951.77
2019-02-19T05:38:01.167Z,100944.02
2019-02-19T05:40:32.363Z,100949.86
2019-02-19T05:43:03.595Z,100953.36
2019-02-19T05:45:34.822Z,100954.80
2019-02-19T05:48:06.025Z,100957.80
2019-02-19T05:50:37.299Z,100969.97
2019-02-19T05:53:08.612Z,100969.58
2019-02-19T05:55:39.906Z,100969.97
2019-02-19T05:58:11.224Z,100963.34
2019-02-19T06:00:42.486Z,100959.90
2019-02-19T06:03:13.763Z,100968.27
2019-02-19T06:05:45.103Z,100963.53
2019-02-19T06:08:16.362Z,100971.59
2019-02-19T06:10:47.572Z,100972.91
2019-02-19T06:13:18.876Z,100979.45
2019-02-19T06:15:50.069Z,100983.50
2019-02-19T06:18:21.308Z,100983.86
2019-02-19T06:20:52.494Z,100996.45
2019-02-19T06:23:23.662Z,101002.47
2019-02-19T06:25:54.925Z,101005.69
2019-02-19T06:28:26.169Z,101009.52
2019-02-19T06:30:57.392Z,101013.74
2019-02-19T06:33:28.628Z,101020.48
2019-02-19T06:35:59.768Z,101020.20
2019-02-19T06:38:31.050Z,101022.39
2019-02-19T06:41:02.230Z,101026.31
2019-02-19T06:43:34.399Z,101026.73
2019-02-19T06:46:05.614Z,101035.59
2019-02-19T06:48:36.862Z,101035.98
2019-02-19T06:51:08.055Z,101040.83
2019-02-19T06:53:39.280Z,101048.38
2019-02-19T06:56:10.554Z,101041.02
2019-02-19T06:58:41.789Z,101037.19
2019-02-19T07:01:13.199Z,101041.64
2019-02-19T07:03:54.893Z,101046.58
2019-02-19T07:06:26.100Z,101049.68
2019-02-19T07:08:57.350Z,101057.63
2019-02-19T07:11:28.748Z,101056.31
2019-02-19T07:13:59.992Z,101066.39
2019-02-19T07:16:31.234Z,101064.98
2019-02-19T07:19:02.486Z,101059.14
2019-02-19T07:21:33.724Z,101054.81
2019-02-19T07:24:04.963Z,101047.75
2019-02-19T07:26:36.116Z,101054.09
2019-02-19T07:29:07.395Z,101059.84
2019-02-19T07:31:38.573Z,101061.35
2019-02-19T07:34:09.794Z,101070.34
2019-02-19T07:36:40.955Z,101069.13
2019-02-19T07:39:12.204Z,101072.77
2019-02-19T07:41:43.386Z,101084.23
2019-02-19T07:44:14.637Z,101079.92
2019-02-19T07:46:45.877Z,101070.95
2019-02-19T07:49:17.066Z,101068.95
2019-02-19T07:51:48.259Z,101065.22
2019-02-19T07:54:19.483Z,101071.08
2019-02-19T07:56:50.697Z,101076.41
2019-02-19T07:59:23.198Z,101078.23
2019-02-19T08:01:54.388Z,101070.17
2019-02-19T08:04:25.620Z,101082.15
2019-02-19T08:06:56.756Z,101078.41
2019-02-19T08:09:28.056Z,101068.16
2019-02-19T08:11:59.277Z,101076.30
2019-02-19T08:14:30.488Z,101080.94
2019-02-19T08:17:01.742Z,101089.41
2019-02-19T08:19:32.933Z,101093.43
2019-02-19T08:22:04.162Z,101085.76
2019-02-19T08:24:35.480Z,101087.69
2019-02-19T08:27:06.659Z,101095.03
2019-02-19T08:29:37.866Z,101084.34
2019-02-19T08:32:09.135Z,101083.31
2019-02-19T08:34:40.396Z,101088.78
2019-02-19T08:37:11.557Z,101090.06
2019-02-19T08:39:42.762Z,101098.72
2019-02-19T08:42:13.925Z,101105.45
2019-02-19T08:44:45.133Z,101106.68
2019-02-19T08:47:16.340Z,101121.46
2019-02-19T08:49:47.524Z,101123.78
2019-02-19T08:52:18.875Z,101110.98
2019-02-19T08:54:50.132Z,101114.18
2019-02-19T08:57:21.328Z,101109.25
2019-02-19T08:59:52.525Z,101110.43
2019-02-19T09:02:23.778Z,101114.15
2019-02-19T09:04:54.987Z,101115.16
2019-02-19T09:07:26.140Z,101121.31
2019-02-19T09:09:57.384Z,101119.70
2019-02-19T09:12:28.762Z,101122.32
2019-02-19T09:15:00.034Z,101117.91
2019-02-19T09:17:31.268Z,101114.45
2019-02-19T09:20:02.571Z,101142.69
2019-02-19T09:22:33.978Z,101123.02
2019-02-19T09:25:05.266Z,101134.52
2019-02-19T09:27:36.518Z,101125.95
2019-02-19T09:30:09.360Z,101130.98
2019-02-19T09:32:40.570Z,101134.78
2019-02-19T09:35:12.151Z,101134.78
2019-02-19T09:37:43.265Z,101133.17
2019-02-19T09:40:14.517Z,101139.02
2019-02-19T09:42:45.704Z,101141.09
2019-02-19T09:45:16.881Z,101143.31
2019-02-19T09:47:48.082Z,101144.71
2019-02-19T09:50:20.413Z,101146.29
2019-02-19T09:52:59.751Z,101149.70
2019-02-19T09:55:24.640Z,101148.08
2019-02-19T09:57:55.913Z,101144.44
2019-02-19T10:00:27.146Z,101152.00
2019-02-19T10:02:58.366Z,101159.05
2019-02-19T10:05:29.621Z,101156.52
2019-02-19T10:08:00.776Z,101158.61
2019-02-19T10:10:32.033Z,101153.05
2019-02-19T10:13:04.201Z,101156.98
2019-02-19T10:15:35.421Z,101153.97
2019-02-19T10:18:10.308Z,101154.14
2019-02-19T10:20:39.487Z,101156.37
2019-02-19T10:23:10.778Z,101159.20
2019-02-19T10:25:42.106Z,101158.58
2019-02-19T10:31:16.727Z,101163.30
2019-02-19T10:33:48.181Z,101165.87
2019-02-19T10:36:19.437Z,101169.19
2019-02-19T10:38:50.651Z,101180.38
2019-02-19T10:41:21.929Z,101177.22
2019-02-19T10:43:53.225Z,101177.91
2019-02-19T10:46:24.552Z,101184.25
2019-02-19T10:48:55.871Z,101186.73
2019-02-19T10:51:28.856Z,101182.48
2019-02-19T10:54:00.347Z,101173.29
2019-02-19T10:56:31.624Z,101186.28
2019-02-19T10:59:02.828Z,101183.25
2019-02-19T11:01:33.995Z,101179.39
2019-02-19T11:04:05.180Z,101192.53
2019-02-19T11:06:36.620Z,101175.45
2019-02-19T11:09:07.866Z,101182.11
2019-02-19T11:11:39.169Z,101186.13
2019-02-19T11:14:10.425Z,101185.87
2019-02-19T11:16:41.896Z,101178.45
2019-02-19T11:19:13.140Z,101169.83
2019-02-19T11:21:44.387Z,101163.70
2019-02-19T11:24:15.768Z,101185.59
2019-02-19T11:26:47.007Z,101170.75
2019-02-19T11:29:18.304Z,101177.00
2019-02-19T11:31:49.614Z,101161.47
2019-02-19T11:34:20.888Z,101167.20
2019-02-19T11:36:52.102Z,101177.71
2019-02-19T11:39:23.318Z,101175.52
2019-02-19T11:41:54.785Z,101172.14
2019-02-19T11:44:26.017Z,101162.16
2019-02-19T11:46:57.202Z,101176.74
2019-02-19T11:49:28.530Z,101158.20
2019-02-19T11:51:59.792Z,101161.45
2019-02-19T11:54:31.043Z,101159.50
2019-02-19T11:57:02.224Z,101149.39
2019-02-19T11:59:34.420Z,101161.53
2019-02-19T12:02:09.907Z,101146.13
2019-02-19T12:04:41.147Z,101153.18
2019-02-19T12:07:12.386Z,101157.67
2019-02-19T12:09:43.612Z,101156.23
2019-02-19T12:12:15.122Z,101146.38
2019-02-19T12:14:46.343Z,101165.65
2019-02-19T12:17:17.529Z,101156.09
2019-02-19T12:19:48.729Z,101155.37
2019-02-19T12:22:19.869Z,101141.16
2019-02-19T12:24:51.155Z,101149.32
2019-02-19T12:27:22.432Z,101176.65
2019-02-19T12:29:53.640Z,101151.36
2019-02-19T12:32:24.933Z,101150.88
2019-02-19T12:34:56.156Z,101149.73
2019-02-19T12:37:27.378Z,101143.34
2019-02-19T12:39:58.749Z,101154.75
2019-02-19T12:42:30.090Z,101154.98
2019-02-19T12:45:01.522Z,101143.86
2019-02-19T12:47:33.073Z,101156.53
2019-02-19T12:50:04.556Z,101147.48
2019-02-19T12:52:35.759Z,101133.52
2019-02-19T12:55:07.720Z,101143.50
2019-02-19T12:57:38.903Z,101131.80
2019-02-19T13:00:12.742Z,101133.33
2019-02-19T13:02:44.253Z,101147.14
2019-02-19T13:05:15.570Z,101128.92
2019-02-19T13:07:47.838Z,101133.94
2019-02-19T13:10:19.125Z,101148.30
2019-02-19T13:12:50.368Z,101129.41
2019-02-19T13:15:21.563Z,101149.77
2019-02-19T13:17:52.897Z,101160.23
2019-02-19T13:20:24.138Z,101139.75
2019-02-19T13:22:55.328Z,101142.24
2019-02-19T13:25:26.625Z,101133.97
2019-02-19T13:27:57.782Z,101145.64
2019-02-19T13:30:29.074Z,101147.44
2019-02-19T13:33:00.247Z,101143.71
2019-02-19T13:35:31.466Z,101134.19
2019-02-19T13:38:02.639Z,101143.27
2019-02-19T13:40:33.872Z,101147.20
2019-02-19T13:43:05.098Z,101146.89
2019-02-19T13:45:36.346Z,101135.97
2019-02-19T13:48:07.610Z,101146.65
2019-02-19T13:50:38.798Z,101140.66
2019-02-19T13:53:23.615Z,101147.97
2019-02-19T13:55:56.742Z,101143.98
2019-02-19T13:58:27.981Z,101141.20
2019-02-19T14:00:59.202Z,101145.00
2019-02-19T14:03:30.381Z,101154.98
2019-02-19T14:06:02.683Z,101141.55
2019-02-19T14:08:33.843Z,101147.84
2019-02-19T14:11:05.013Z,101151.50
2019-02-19T14:13:37.980Z,101152.16
2019-02-19T14:16:16.678Z,101151.14
2019-02-19T14:18:55.682Z,101152.13
2019-02-19T14:21:38.114Z,101151.16
2019-02-19T14:24:27.357Z,101157.36
2019-02-19T14:27:08.036Z,101166.30
2019-02-19T14:30:07.295Z,101159.70
2019-02-19T14:33:00.475Z,101158.75
2019-02-19T14:35:56.886Z,101162.01
2019-02-19T14:38:45.830Z,101166.12
2019-02-19T14:41:34.957Z,101166.77
2019-02-19T14:44:23.936Z,101173.43
2019-02-19T14:47:29.425Z,101172.02
2019-02-19T14:50:07.068Z,101178.80
2019-02-19T14:52:52.045Z,101174.54
2019-02-19T14:55:51.576Z,101181.55
2019-02-19T14:58:47.859Z,101177.84
2019-02-19T15:01:33.984Z,101180.64
2019-02-19T15:04:33.288Z,101177.59
2019-02-19T15:07:29.433Z,101175.20
2019-02-19T15:10:31.829Z,101177.73
2019-02-19T15:13:18.855Z,101190.14
2019-02-19T15:15:59.345Z,101184.53
2019-02-19T15:18:52.433Z,101194.62
2019-02-19T15:21:35.302Z,101182.35
2019-02-19T15:24:43.735Z,101190.72
2019-02-19T15:27:46.143Z,101192.75
2019-02-19T15:30:36.421Z,101188.05
2019-02-19T15:33:25.586Z,101189.83
2019-02-19T15:36:25.405Z,101194.13
2019-02-19T15:39:34.054Z,101187.80
2019-02-19T15:42:24.021Z,101189.74
2019-02-19T15:45:13.157Z,101194.16
2019-02-19T15:48:02.203Z,101192.35
2019-02-19T15:50:51.238Z,101195.30
2019-02-19T15:53:28.396Z,101194.13
2019-02-19T15:56:21.324Z,101201.64
2019-02-19T15:59:07.643Z,101179.94
2019-02-19T16:01:46.513Z,101184.73
2019-02-19T16:04:24.236Z,101183.56
2019-02-19T16:07:17.397Z,101181.88
2019-02-19T16:10:03.843Z,101179.91
2019-02-19T16:12:52.338Z,101183.08
2019-02-19T16:15:57.508Z,101182.25
2019-02-19T16:18:34.435Z,101187.73
2019-02-19T16:21:23.487Z,101185.02
2019-02-19T16:24:14.275Z,101189.75
2019-02-19T16:27:13.848Z,101183.49
2019-02-19T16:30:12.895Z,101179.07
2019-02-19T16:33:03.318Z,101176.27
2019-02-19T16:35:53.836Z,101180.83
2019-02-19T16:38:36.456Z,101176.06
2019-02-19T16:41:19.256Z,101186.48
2019-02-19T16:44:01.442Z,101183.28
2019-02-19T16:46:50.391Z,101187.10
2019-02-19T16:49:46.485Z,101178.34
2019-02-19T16:52:24.811Z,101180.05
2019-02-19T16:55:18.158Z,101176.82
2019-02-19T16:57:57.501Z,101175.82
2019-02-19T17:00:34.497Z,101173.50
2019-02-19T17:03:23.680Z,101177.27
2019-02-19T17:06:16.673Z,101188.51
2019-02-19T17:09:06.808Z,101190.63
2019-02-19T17:11:49.158Z,101195.39
2019-02-19T17:14:48.252Z,101196.09
2019-02-19T17:17:53.864Z,101200.42
2019-02-19T17:20:40.656Z,101197.45
2019-02-19T17:23:20.333Z,101222.89
2019-02-19T17:25:59.479Z,101203.22
2019-02-19T17:32:00.208Z,101234.61
2019-02-19T17:34:46.503Z,101220.88
2019-02-19T17:37:35.607Z,101221.36
2019-02-19T17:40:13.336Z,101225.64
2019-02-19T17:42:51.662Z,101229.66
2019-02-19T17:45:57.267Z,101228.53
2019-02-19T17:48:53.385Z,101232.86
2019-02-19T17:51:34.769Z,101222.89
2019-02-19T17:54:28.150Z,101225.21
2019-02-19T17:57:33.782Z,101239.73
2019-02-19T18:00:28.364Z,101238.81
2019-02-19T18:03:17.617Z,101241.25
2019-02-19T18:06:13.646Z,101235.09
2019-02-19T18:09:00.394Z,101240.44
2019-02-19T18:11:53.918Z,101240.83
2019-02-19T18:14:56.105Z,101250.74
2019-02-19T18:17:32.494Z,101241.86
2019-02-19T18:20:04.967Z,101243.79
2019-02-19T18:22:36.684Z,101251.66
2019-02-19T18:25:08.177Z,101248.13
2019-02-19T18:27:39.750Z,101260.84
2019-02-19T18:30:11.042Z,101257.78
2019-02-19T18:32:42.350Z,101259.10
2019-02-19T18:35:13.866Z,101269.29
2019-02-19T18:37:45.241Z,101260.11
2019-02-19T18:40:16.822Z,101265.66
2019-02-19T18:42:48.245Z,101284.85
2019-02-19T18:45:19.766Z,101267.91
2019-02-19T18:47:51.029Z,101270.31
2019-02-19T18:50:22.144Z,101276.48
2019-02-19T18:52:53.331Z,101279.93
2019-02-19T18:55:24.635Z,101283.34
2019-02-19T18:57:55.898Z,101286.48
2019-02-19T19:00:27.005Z,101286.06
2019-02-19T19:02:58.165Z,101285.76
2019-02-19T19:05:29.311Z,101288.08
2019-02-19T19:08:00.430Z,101280.30
2019-02-19T19:10:31.729Z,101280.91
2019-02-19T19:13:03.203Z,101281.00
2019-02-19T19:15:34.563Z,101282.13
2019-02-19T19:18:05.748Z,101283.75
2019-02-19T19:20:36.994Z,101294.55
2019-02-19T19:23:09.605Z,101294.94
2019-02-19T19:25:40.865Z,101300.20
2019-02-19T19:28:12.088Z,101316.23
2019-02-19T19:30:43.345Z,101320.50
2019-02-19T19:33:14.597Z,101341.06
2019-02-19T19:35:45.698Z,101339.55
2019-02-19T19:38:16.999Z,101345.87
2019-02-19T19:40:48.189Z,101368.03
2019-02-19T19:43:19.522Z,101345.48
2019-02-19T19:45:50.821Z,101333.02
2019-02-19T19:48:21.995Z,101336.29
2019-02-19T19:50:53.455Z,101343.79
2019-02-19T19:53:24.736Z,101344.24
2019-02-19T19:56:00.640Z,101349.20
2019-02-19T19:58:32.570Z,101350.38
2019-02-19T20:01:03.776Z,101357.05
2019-02-19T20:03:35.166Z,101354.50
2019-02-19T20:06:07.419Z,101357.98
2019-02-19T20:08:39.878Z,101368.33
2019-02-19T20:11:11.686Z,101369.00
2019-02-19T20:13:42.946Z,101356.25
2019-02-19T20:16:15.573Z,101364.09
2019-02-19T20:18:46.845Z,101360.66
2019-02-19T20:21:26.477Z,101369.99
2019-02-19T20:23:51.098Z,101377.62
2019-02-19T20:26:22.309Z,101370.28
2019-02-19T20:28:53.521Z,101374.31
2019-02-19T20:31:24.670Z,101366.98
2019-02-19T20:33:56.718Z,101372.72
2019-02-19T20:36:28.264Z,101365.41
2019-02-19T20:38:59.615Z,101366.70
2019-02-19T20:41:31.589Z,101367.88
2019-02-19T20:44:02.947Z,101367.27
2019-02-19T20:46:34.331Z,101373.28
2019-02-19T20:49:05.732Z,101375.79
2019-02-19T20:51:38.461Z,101383.14
2019-02-19T20:54:09.902Z,101387.23
2019-02-19T20:56:41.243Z,101376.47
2019-02-19T20:59:12.820Z,101380.81
2019-02-19T21:01:44.425Z,101387.73
2019-02-19T21:04:17.204Z,101375.75
2019-02-19T21:06:48.811Z,101379.14
2019-02-19T21:09:22.090Z,101371.20
2019-02-19T21:11:54.777Z,101378.93
2019-02-19T21:14:26.396Z,101383.77
2019-02-19T21:16:57.682Z,101381.94
2019-02-19T21:19:28.985Z,101389.39
2019-02-19T21:22:01.044Z,101384.94
2019-02-19T21:24:33.872Z,101382.64
2019-02-19T21:27:07.131Z,101390.48
2019-02-19T21:29:38.651Z,101389.03
2019-02-19T21:32:09.966Z,101393.94
2019-02-19T21:34:41.194Z,101395.80
2019-02-19T21:37:12.657Z,101399.23
2019-02-19T21:39:43.981Z,101400.01
2019-02-19T21:42:15.182Z,101406.33
2019-02-19T21:44:46.488Z,101410.00
2019-02-19T21:47:18.730Z,101412.61
2019-02-19T21:49:53.256Z,101406.22
2019-02-19T21:52:24.814Z,101414.34
2019-02-19T21:54:56.044Z,101414.45
2019-02-19T21:57:27.339Z,101415.22
2019-02-19T21:59:58.588Z,101406.88
2019-02-19T22:02:29.728Z,101411.47
2019-02-19T22:05:01.068Z,101420.02
2019-02-19T22:07:32.601Z,101417.67
2019-02-19T22:10:03.979Z,101412.45
2019-02-19T22:12:36.440Z,101408.81
2019-02-19T22:15:07.730Z,101411.42
2019-02-19T22:17:38.933Z,101411.81
2019-02-19T22:20:19.512Z,101417.14
2019-02-19T22:22:50.629Z,101432.16
2019-02-19T22:25:21.823Z,101420.79
2019-02-19T22:27:53.052Z,101418.17
2019-02-19T22:30:24.259Z,101413.59
2019-02-19T22:32:55.439Z,101418.65
2019-02-19T22:35:26.713Z,101408.41
2019-02-19T22:37:57.905Z,101412.05
2019-02-19T22:40:29.033Z,101410.58
2019-02-19T22:43:01.254Z,101414.61
2019-02-19T22:45:33.155Z,101427.39
2019-02-19T22:48:04.534Z,101411.15
2019-02-19T22:50:35.759Z,101418.33
2019-02-19T22:53:25.960Z,101412.92
2019-02-19T22:56:02.550Z,101416.67
2019-02-19T22:58:33.770Z,101415.69
2019-02-19T23:01:14.752Z,101424.28
2019-02-19T23:03:46.080Z,101425.41
2019-02-19T23:06:17.264Z,101435.42
2019-02-19T23:08:48.459Z,101424.67
2019-02-19T23:11:19.652Z,101433.55
2019-02-19T23:13:50.890Z,101429.34
2019-02-19T23:16:22.141Z,101443.66
2019-02-19T23:18:53.305Z,101433.55
2019-02-19T23:21:24.479Z,101441.61
2019-02-19T23:23:55.702Z,101439.09
2019-02-19T23:26:27.025Z,101451.13
2019-02-19T23:28:58.245Z,101443.77
2019-02-19T23:31:29.451Z,101448.22
2019-02-19T23:34:00.655Z,101444.51
2019-02-19T23:36:39.443Z,101446.20
2019-02-19T23:39:10.700Z,101443.70
2019-02-19T23:41:42.162Z,101445.53
2019-02-19T23:44:13.339Z,101447.77
2019-02-19T23:46:44.524Z,101452.18
2019-02-19T23:49:15.742Z,101459.64
2019-02-19T23:51:46.907Z,101446.56
2019-02-19T23:54:18.123Z,101447.44
2019-02-19T23:56:49.294Z,101455.61
2019-02-19T23:59:20.562Z,101449.53
